Time;durP1;ratioP1;P1;durP2;ratioP2;P2;SDS_P1;SDS_P2;PMS_P1;PMS_P2;Temp;Humidity;BMP_temperature;BMP_pressure;BME280_temperature;BME280_humidity;BME280_pressure;Samples;Min_cycle;Max_cycle;Signal;HPM_P1;HPM_P2
2023/05/07 00:02:07;;;;;;;36.97;19.53;;;;;;;;;;5055146;28;20029;-65
2023/05/07 00:04:36;;;;;;;30.13;15.17;;;;;;;;;;5054755;28;20056;-64
2023/05/07 00:07:02;;;;;;;39.40;19.43;;;;;;;;;;5054368;28;20094;-65
2023/05/07 00:09:27;;;;;;;28.23;14.03;;;;;;;;;;5054657;28;20046;-64
2023/05/07 00:11:54;;;;;;;32.63;15.40;;;;;;;;;;5053935;28;20060;-64
2023/05/07 00:14:19;;;;;;;38.03;20.43;;;;;;;;;;5054370;28;20123;-65
2023/05/07 00:16:44;;;;;;;31.97;15.93;;;;;;;;;;5054477;28;20017;-65
2023/05/07 00:19:10;;;;;;;31.33;15.97;;;;;;;;;;5036653;28;20457;-65
2023/05/07 00:21:35;;;;;;;35.87;18.90;;;;;;;;;;5051269;28;20033;-64
2023/05/07 00:24:00;;;;;;;34.37;17.90;;;;;;;;;;5054342;28;20025;-64
2023/05/07 00:26:26;;;;;;;29.33;16.13;;;;;;;;;;5052715;28;20025;-64
2023/05/07 00:28:51;;;;;;;31.53;17.43;;;;;;;;;;5052442;28;20075;-64
2023/05/07 00:31:16;;;;;;;26.53;12.87;;;;;;;;;;5051737;28;20444;-65
2023/05/07 00:33:41;;;;;;;35.93;20.23;;;;;;;;;;5053754;28;20103;-65
2023/05/07 00:36:07;;;;;;;23.60;11.13;;;;;;;;;;5052613;28;20024;-66
2023/05/07 00:38:32;;;;;;;20.13;9.47;;;;;;;;;;5054093;28;20056;-65
2023/05/07 00:40:57;;;;;;;32.63;15.60;;;;;;;;;;5052708;28;20025;-64
2023/05/07 00:43:23;;;;;;;26.10;13.57;;;;;;;;;;5054241;28;20535;-64
2023/05/07 00:45:48;;;;;;;33.30;14.93;;;;;;;;;;5051864;28;20086;-64
2023/05/07 00:48:14;;;;;;;33.03;16.40;;;;;;;;;;5053847;28;20048;-65
2023/05/07 00:50:39;;;;;;;34.20;19.93;;;;;;;;;;5052736;28;20515;-64
2023/05/07 00:53:05;;;;;;;18.80;9.00;;;;;;;;;;5052713;28;20063;-63
2023/05/07 00:55:31;;;;;;;23.03;12.17;;;;;;;;;;5052937;28;20100;-63
2023/05/07 00:57:56;;;;;;;26.67;14.73;;;;;;;;;;5052976;28;20131;-63
2023/05/07 01:03:25;;;;;;;19.37;9.07;;;;;;;;;;5073329;22;20022;-62
2023/05/07 01:05:52;;;;;;;21.60;11.07;;;;;;;;;;5050905;28;20472;-62
2023/05/07 01:08:17;;;;;;;23.63;13.50;;;;;;;;;;5054038;28;20040;-63
2023/05/07 01:10:43;;;;;;;31.63;19.07;;;;;;;;;;5051945;28;20455;-62
2023/05/07 01:13:12;;;;;;;27.57;15.23;;;;;;;;;;5053061;28;20096;-62
2023/05/07 01:15:37;;;;;;;19.90;10.43;;;;;;;;;;5052789;28;20480;-62
2023/05/07 01:18:03;;;;;;;22.53;11.10;;;;;;;;;;5053265;28;20032;-62
2023/05/07 01:20:28;;;;;;;28.60;16.33;;;;;;;;;;5051383;28;20036;-62
2023/05/07 01:22:54;;;;;;;25.07;14.40;;;;;;;;;;5052908;28;20025;-62
2023/05/07 01:25:19;;;;;;;22.10;11.10;;;;;;;;;;5050969;28;20044;-63
2023/05/07 01:27:45;;;;;;;25.00;15.57;;;;;;;;;;5050988;28;20560;-62
2023/05/07 01:30:11;;;;;;;24.27;14.00;;;;;;;;;;5051271;28;20472;-62
2023/05/07 01:32:45;;;;;;;30.47;18.00;;;;;;;;;;5052328;28;20028;-62
2023/05/07 01:35:11;;;;;;;18.53;10.07;;;;;;;;;;5053744;28;20028;-62
2023/05/07 01:37:37;;;;;;;12.40;6.90;;;;;;;;;;5052179;28;20025;-62
2023/05/07 01:40:03;;;;;;;24.57;14.00;;;;;;;;;;5052482;28;20086;-62
2023/05/07 01:42:29;;;;;;;22.33;12.83;;;;;;;;;;5052021;28;20115;-62
2023/05/07 01:44:55;;;;;;;26.23;13.83;;;;;;;;;;5052271;28;20047;-62
2023/05/07 01:47:21;;;;;;;26.43;15.23;;;;;;;;;;5051826;28;20037;-62
2023/05/07 01:49:46;;;;;;;26.40;14.97;;;;;;;;;;5053031;28;20017;-63
2023/05/07 01:52:12;;;;;;;26.63;14.53;;;;;;;;;;5052156;28;20143;-62
2023/05/07 01:54:37;;;;;;;20.17;9.50;;;;;;;;;;5033681;28;20021;-63
2023/05/07 01:57:02;;;;;;;24.57;14.10;;;;;;;;;;5053223;28;20098;-62
2023/05/07 01:59:27;;;;;;;24.40;14.33;;;;;;;;;;5050819;28;20502;-62
2023/05/07 02:01:53;;;;;;;17.47;8.43;;;;;;;;;;5050689;28;20021;-62
2023/05/07 02:04:18;;;;;;;26.50;15.03;;;;;;;;;;5053395;28;20497;-62
2023/05/07 02:06:43;;;;;;;19.23;10.43;;;;;;;;;;5053083;28;20021;-62
2023/05/07 02:09:09;;;;;;;17.73;8.73;;;;;;;;;;5051655;28;20079;-62
2023/05/07 02:11:34;;;;;;;23.03;12.70;;;;;;;;;;5051724;28;20025;-63
2023/05/07 02:13:59;;;;;;;22.97;12.37;;;;;;;;;;5051733;28;20036;-62
2023/05/07 02:16:25;;;;;;;28.33;17.23;;;;;;;;;;5051578;28;20404;-62
2023/05/07 02:18:50;;;;;;;26.83;15.63;;;;;;;;;;5050454;28;20032;-62
2023/05/07 02:21:15;;;;;;;23.43;13.13;;;;;;;;;;5051966;28;20086;-62
2023/05/07 02:23:40;;;;;;;19.90;10.97;;;;;;;;;;5052535;28;20036;-62
2023/05/07 02:26:06;;;;;;;30.80;16.83;;;;;;;;;;5051248;28;20009;-63
2023/05/07 02:28:31;;;;;;;25.73;15.10;;;;;;;;;;5050749;28;20075;-62
2023/05/07 02:30:58;;;;;;;25.17;15.23;;;;;;;;;;5049573;28;20024;-63
2023/05/07 02:33:23;;;;;;;25.20;13.63;;;;;;;;;;5052220;28;20062;-63
2023/05/07 02:35:49;;;;;;;20.53;11.87;;;;;;;;;;5053117;28;20107;-62
2023/05/07 02:38:14;;;;;;;26.87;16.27;;;;;;;;;;5056515;28;20032;-62
2023/05/07 02:40:39;;;;;;;28.47;17.27;;;;;;;;;;5055382;28;20039;-62
2023/05/07 02:43:05;;;;;;;23.33;14.17;;;;;;;;;;5055952;28;20020;-62
2023/05/07 02:45:31;;;;;;;26.17;16.17;;;;;;;;;;5055804;28;20051;-69
2023/05/07 02:47:56;;;;;;;28.30;17.73;;;;;;;;;;5056802;28;20029;-70
2023/05/07 02:50:21;;;;;;;27.83;14.97;;;;;;;;;;5054057;28;20043;-70
2023/05/07 02:52:47;;;;;;;27.40;16.70;;;;;;;;;;5056739;28;20052;-70
2023/05/07 02:55:12;;;;;;;19.57;12.00;;;;;;;;;;5054352;28;20472;-69
2023/05/07 02:57:38;;;;;;;29.70;16.77;;;;;;;;;;5055118;28;20029;-69
2023/05/07 03:00:21;;;;;;;20.27;12.40;;;;;;;;;;5043679;28;20083;-69
2023/05/07 03:02:46;;;;;;;30.67;18.60;;;;;;;;;;5055071;28;20045;-69
2023/05/07 03:05:12;;;;;;;23.57;11.00;;;;;;;;;;5065128;28;20075;-70
2023/05/07 03:07:37;;;;;;;24.90;13.87;;;;;;;;;;5055956;28;20025;-70
2023/05/07 03:10:03;;;;;;;22.83;12.87;;;;;;;;;;5055502;28;20028;-70
2023/05/07 03:12:29;;;;;;;23.73;12.07;;;;;;;;;;5054250;28;20358;-69
2023/05/07 03:14:54;;;;;;;32.33;19.77;;;;;;;;;;5055540;28;20029;-69
2023/05/07 03:17:20;;;;;;;22.13;11.83;;;;;;;;;;5052900;28;20059;-69
2023/05/07 03:19:45;;;;;;;25.73;13.03;;;;;;;;;;5055261;28;20044;-70
2023/05/07 03:22:11;;;;;;;29.93;16.70;;;;;;;;;;5054882;28;20025;-70
2023/05/07 03:24:36;;;;;;;22.87;11.03;;;;;;;;;;5055153;28;20036;-71
2023/05/07 03:27:01;;;;;;;28.07;16.30;;;;;;;;;;5053283;28;20020;-69
2023/05/07 03:29:27;;;;;;;28.90;16.97;;;;;;;;;;5053509;28;20362;-69
2023/05/07 03:31:52;;;;;;;16.77;8.77;;;;;;;;;;5054939;28;20024;-70
2023/05/07 03:34:21;;;;;;;14.57;8.33;;;;;;;;;;5054514;28;20028;-69
2023/05/07 03:36:47;;;;;;;21.83;10.87;;;;;;;;;;5055854;28;20222;-69
2023/05/07 03:39:12;;;;;;;22.03;11.83;;;;;;;;;;5054587;28;20052;-69
2023/05/07 03:41:37;;;;;;;19.13;9.30;;;;;;;;;;5054684;28;20427;-70
2023/05/07 03:44:03;;;;;;;31.13;17.40;;;;;;;;;;5055442;28;20039;-69
2023/05/07 03:46:28;;;;;;;23.33;11.77;;;;;;;;;;5054096;28;20063;-69
2023/05/07 03:48:53;;;;;;;29.93;15.97;;;;;;;;;;5053865;28;20024;-69
2023/05/07 03:51:19;;;;;;;31.23;16.70;;;;;;;;;;5054454;28;20103;-69
2023/05/07 03:53:44;;;;;;;29.17;15.13;;;;;;;;;;5055058;28;20143;-69
2023/05/07 03:56:10;;;;;;;18.70;7.43;;;;;;;;;;5054279;28;20427;-69
2023/05/07 03:58:35;;;;;;;21.17;10.43;;;;;;;;;;5053013;28;20248;-69
2023/05/07 04:01:00;;;;;;;32.87;18.20;;;;;;;;;;5054729;28;20031;-69
2023/05/07 04:03:26;;;;;;;20.83;9.93;;;;;;;;;;5052308;28;20013;-69
2023/05/07 04:05:51;;;;;;;28.80;15.23;;;;;;;;;;5054227;28;20055;-69
2023/05/07 04:08:16;;;;;;;29.50;14.27;;;;;;;;;;5054659;28;20100;-69
2023/05/07 04:10:42;;;;;;;26.97;13.10;;;;;;;;;;5054815;28;20464;-69
2023/05/07 04:13:07;;;;;;;31.27;17.13;;;;;;;;;;5054745;28;20029;-69
2023/05/07 04:15:32;;;;;;;30.23;16.93;;;;;;;;;;5050739;28;20025;-69
2023/05/07 04:17:58;;;;;;;32.80;16.73;;;;;;;;;;5054699;28;20508;-69
2023/05/07 04:20:23;;;;;;;31.10;17.53;;;;;;;;;;5035352;28;20029;-69
2023/05/07 04:22:48;;;;;;;26.17;13.20;;;;;;;;;;5054774;28;20029;-69
2023/05/07 04:25:15;;;;;;;28.53;14.53;;;;;;;;;;5057717;28;20017;-69
2023/05/07 04:27:41;;;;;;;16.60;8.27;;;;;;;;;;5054455;28;20096;-69
2023/05/07 04:30:06;;;;;;;25.70;12.43;;;;;;;;;;5053691;28;20144;-70
2023/05/07 04:32:31;;;;;;;25.90;12.40;;;;;;;;;;5054237;28;20025;-69
2023/05/07 04:34:57;;;;;;;30.30;16.10;;;;;;;;;;5054024;28;20528;-69
2023/05/07 04:37:22;;;;;;;26.47;13.50;;;;;;;;;;5053962;28;20032;-70
2023/05/07 04:39:47;;;;;;;22.97;11.43;;;;;;;;;;5053861;28;20029;-69
2023/05/07 04:42:16;;;;;;;23.00;11.97;;;;;;;;;;5052774;28;20024;-70
2023/05/07 04:44:43;;;;;;;31.17;16.47;;;;;;;;;;5053108;28;20063;-69
2023/05/07 04:47:08;;;;;;;26.23;13.53;;;;;;;;;;5053398;28;20020;-70
2023/05/07 04:49:34;;;;;;;23.23;11.30;;;;;;;;;;5053655;28;20027;-69
2023/05/07 04:51:59;;;;;;;26.00;11.00;;;;;;;;;;5053149;28;20469;-69
2023/05/07 04:54:25;;;;;;;29.43;16.40;;;;;;;;;;5054243;28;20540;-69
2023/05/07 04:56:50;;;;;;;22.67;11.27;;;;;;;;;;5052970;28;20025;-69
2023/05/07 04:59:15;;;;;;;29.33;14.63;;;;;;;;;;5052965;28;20025;-69
2023/05/07 05:01:41;;;;;;;23.60;11.07;;;;;;;;;;5052175;28;20384;-69
2023/05/07 05:04:06;;;;;;;25.03;12.63;;;;;;;;;;5050618;28;20041;-69
2023/05/07 05:06:32;;;;;;;26.17;12.60;;;;;;;;;;5053977;28;20025;-69
2023/05/07 05:08:57;;;;;;;26.27;14.33;;;;;;;;;;5052737;28;20017;-69
2023/05/07 05:11:22;;;;;;;27.47;14.57;;;;;;;;;;5052618;28;20032;-69
2023/05/07 05:13:49;;;;;;;25.47;12.63;;;;;;;;;;5052096;28;20109;-69
2023/05/07 05:16:14;;;;;;;20.03;9.63;;;;;;;;;;5051907;28;20082;-69
2023/05/07 05:18:40;;;;;;;31.50;16.47;;;;;;;;;;5053014;28;20025;-69
2023/05/07 05:21:05;;;;;;;23.53;10.40;;;;;;;;;;5052354;28;20477;-69
2023/05/07 05:23:30;;;;;;;31.17;17.00;;;;;;;;;;5052726;28;20060;-69
2023/05/07 05:25:57;;;;;;;27.57;12.93;;;;;;;;;;5052506;28;20058;-69
2023/05/07 05:28:22;;;;;;;25.50;12.90;;;;;;;;;;5045681;28;20017;-69
2023/05/07 05:30:48;;;;;;;31.23;14.77;;;;;;;;;;5052994;28;20082;-70
2023/05/07 05:33:13;;;;;;;26.83;11.30;;;;;;;;;;5052168;28;20550;-69
2023/05/07 05:35:38;;;;;;;28.53;15.03;;;;;;;;;;5052494;28;20056;-69
2023/05/07 05:38:03;;;;;;;25.40;13.13;;;;;;;;;;5053107;28;20048;-70
2023/05/07 05:40:29;;;;;;;24.10;12.83;;;;;;;;;;5052272;28;20556;-69
2023/05/07 05:42:55;;;;;;;20.83;10.07;;;;;;;;;;5051054;28;20013;-69
2023/05/07 05:45:20;;;;;;;21.37;10.33;;;;;;;;;;5052186;28;20024;-69
2023/05/07 05:47:45;;;;;;;28.20;14.30;;;;;;;;;;5053075;28;20025;-70
2023/05/07 05:50:11;;;;;;;21.57;9.87;;;;;;;;;;5051904;28;20020;-69
2023/05/07 05:52:36;;;;;;;26.60;14.03;;;;;;;;;;5051642;28;20029;-69
2023/05/07 05:55:01;;;;;;;16.17;8.03;;;;;;;;;;5051605;28;20381;-69
2023/05/07 05:57:26;;;;;;;25.87;12.43;;;;;;;;;;5051909;28;20033;-69
2023/05/07 05:59:52;;;;;;;16.20;7.90;;;;;;;;;;5051957;28;20535;-69
2023/05/07 06:02:17;;;;;;;23.57;11.93;;;;;;;;;;5051171;28;20029;-69
2023/05/07 06:04:42;;;;;;;23.10;12.90;;;;;;;;;;5050559;28;20029;-69
2023/05/07 06:07:08;;;;;;;18.60;7.67;;;;;;;;;;5051967;28;20028;-70
2023/05/07 06:09:33;;;;;;;18.20;9.90;;;;;;;;;;5051460;28;20064;-70
2023/05/07 06:11:58;;;;;;;13.47;6.37;;;;;;;;;;5051758;28;20017;-69
2023/05/07 06:14:24;;;;;;;17.37;9.17;;;;;;;;;;5052963;28;20025;-70
2023/05/07 06:16:49;;;;;;;16.57;8.07;;;;;;;;;;5052000;28;20465;-69
2023/05/07 06:19:14;;;;;;;20.63;11.03;;;;;;;;;;5051346;28;20025;-69
2023/05/07 06:21:40;;;;;;;14.70;8.03;;;;;;;;;;5050964;28;20107;-69
2023/05/07 06:24:05;;;;;;;16.90;9.27;;;;;;;;;;5052052;28;20027;-70
2023/05/07 06:26:31;;;;;;;15.90;7.53;;;;;;;;;;5052058;28;20083;-69
2023/05/07 06:28:56;;;;;;;19.77;10.77;;;;;;;;;;5052426;28;20768;-70
2023/05/07 06:31:21;;;;;;;19.47;9.90;;;;;;;;;;5051755;28;20079;-70
2023/05/07 06:33:47;;;;;;;21.83;11.80;;;;;;;;;;5051570;28;20054;-70
2023/05/07 06:36:12;;;;;;;14.83;7.87;;;;;;;;;;5050722;28;20370;-69
2023/05/07 06:38:37;;;;;;;12.07;6.30;;;;;;;;;;5052958;28;20021;-70
2023/05/07 06:41:03;;;;;;;21.60;11.40;;;;;;;;;;5050528;28;20021;-70
2023/05/07 06:43:28;;;;;;;19.60;9.97;;;;;;;;;;5051230;28;20021;-71
2023/05/07 06:45:53;;;;;;;17.63;10.23;;;;;;;;;;5049880;28;20013;-69
2023/05/07 06:48:19;;;;;;;14.50;8.03;;;;;;;;;;5052705;28;20377;-70
2023/05/07 06:50:44;;;;;;;17.20;8.30;;;;;;;;;;5049986;28;20032;-69
2023/05/07 06:53:09;;;;;;;15.50;8.57;;;;;;;;;;5050684;28;20025;-70
2023/05/07 06:55:35;;;;;;;19.77;12.47;;;;;;;;;;5051546;28;20029;-70
2023/05/07 06:58:00;;;;;;;16.03;9.33;;;;;;;;;;5051690;28;20419;-69
2023/05/07 07:00:28;;;;;;;20.97;11.97;;;;;;;;;;5051374;28;20025;-69
2023/05/07 07:02:54;;;;;;;21.07;11.90;;;;;;;;;;5049845;28;20021;-70
2023/05/07 07:05:20;;;;;;;15.10;8.03;;;;;;;;;;5048845;28;20781;-69
2023/05/07 07:07:52;;;;;;;20.17;11.37;;;;;;;;;;5047314;28;20063;-70
2023/05/07 07:10:17;;;;;;;11.03;6.10;;;;;;;;;;5050806;28;20028;-69
2023/05/07 07:12:43;;;;;;;17.03;9.97;;;;;;;;;;5051951;28;20025;-70
2023/05/07 07:15:09;;;;;;;12.20;5.37;;;;;;;;;;5049905;28;20017;-70
2023/05/07 07:17:35;;;;;;;12.60;5.80;;;;;;;;;;5047225;28;20036;-70
2023/05/07 07:20:00;;;;;;;9.30;4.83;;;;;;;;;;5047839;28;20028;-69
2023/05/07 07:22:25;;;;;;;16.03;9.33;;;;;;;;;;5047057;28;20025;-69
2023/05/07 07:24:51;;;;;;;13.13;6.50;;;;;;;;;;5054387;28;20024;-69
2023/05/07 07:27:16;;;;;;;15.53;8.83;;;;;;;;;;5052950;28;20028;-69
2023/05/07 07:29:41;;;;;;;14.87;8.97;;;;;;;;;;5052440;28;20025;-69
2023/05/07 07:32:06;;;;;;;25.30;16.13;;;;;;;;;;5051482;28;20032;-70
2023/05/07 07:34:32;;;;;;;18.03;10.87;;;;;;;;;;5052868;28;20526;-69
2023/05/07 07:36:57;;;;;;;17.27;10.53;;;;;;;;;;5054721;28;20024;-69
2023/05/07 07:39:22;;;;;;;15.57;9.10;;;;;;;;;;5053804;28;20021;-69
2023/05/07 07:41:48;;;;;;;13.13;7.57;;;;;;;;;;5050253;28;20016;-69
2023/05/07 07:44:13;;;;;;;14.80;8.10;;;;;;;;;;5053533;28;20031;-69
2023/05/07 07:46:38;;;;;;;12.57;6.60;;;;;;;;;;5054066;28;20091;-69
2023/05/07 07:49:04;;;;;;;12.20;4.83;;;;;;;;;;5049331;28;20051;-69
2023/05/07 07:51:30;;;;;;;11.43;6.50;;;;;;;;;;5053331;28;20079;-69
2023/05/07 07:53:57;;;;;;;9.50;4.50;;;;;;;;;;5053671;28;20017;-70
2023/05/07 07:56:22;;;;;;;12.50;6.90;;;;;;;;;;5053663;28;20063;-70
2023/05/07 07:58:48;;;;;;;11.80;6.47;;;;;;;;;;5053559;28;20029;-70
2023/05/07 08:01:13;;;;;;;14.07;7.90;;;;;;;;;;5051501;28;20048;-70
2023/05/07 08:03:38;;;;;;;15.00;8.07;;;;;;;;;;5050574;28;20389;-69
2023/05/07 08:06:04;;;;;;;14.43;8.40;;;;;;;;;;5050913;28;20025;-70
2023/05/07 08:08:29;;;;;;;16.83;10.70;;;;;;;;;;5050519;28;20025;-70
2023/05/07 08:10:54;;;;;;;11.40;5.73;;;;;;;;;;5050618;28;20024;-69
2023/05/07 08:13:20;;;;;;;14.03;8.70;;;;;;;;;;5055332;28;20029;-69
2023/05/07 08:15:45;;;;;;;16.80;10.57;;;;;;;;;;5055103;28;20024;-69
2023/05/07 08:18:10;;;;;;;17.00;10.70;;;;;;;;;;5054785;28;20025;-70
2023/05/07 08:20:39;;;;;;;14.07;8.73;;;;;;;;;;5053880;28;20426;-70
2023/05/07 08:23:05;;;;;;;15.73;9.90;;;;;;;;;;5054527;28;20458;-70
2023/05/07 08:25:32;;;;;;;12.83;8.07;;;;;;;;;;5055054;28;20020;-70
2023/05/07 08:27:57;;;;;;;12.80;6.97;;;;;;;;;;5050982;28;20144;-70
2023/05/07 08:30:23;;;;;;;14.07;8.87;;;;;;;;;;5051955;28;20412;-70
2023/05/07 08:32:48;;;;;;;11.80;5.73;;;;;;;;;;5050686;28;20021;-70
2023/05/07 08:35:14;;;;;;;11.93;6.33;;;;;;;;;;5052570;28;20019;-70
2023/05/07 08:37:40;;;;;;;12.90;7.27;;;;;;;;;;5051323;28;20020;-69
2023/05/07 08:40:06;;;;;;;14.90;9.17;;;;;;;;;;5052836;28;20044;-69
2023/05/07 08:42:32;;;;;;;13.33;8.10;;;;;;;;;;5050728;28;20025;-69
2023/05/07 08:44:59;;;;;;;10.90;6.30;;;;;;;;;;5054644;28;20013;-70
2023/05/07 08:47:29;;;;;;;10.47;6.13;;;;;;;;;;5053423;28;20032;-70
2023/05/07 08:49:55;;;;;;;10.00;6.27;;;;;;;;;;5051180;28;20064;-70
2023/05/07 08:52:20;;;;;;;12.03;8.03;;;;;;;;;;5052629;28;20032;-70
2023/05/07 08:54:45;;;;;;;12.37;7.47;;;;;;;;;;5053439;28;20481;-70
2023/05/07 08:57:11;;;;;;;9.73;6.77;;;;;;;;;;5053199;28;20087;-70
2023/05/07 08:59:36;;;;;;;12.60;8.97;;;;;;;;;;5053512;28;20067;-70
2023/05/07 09:02:02;;;;;;;10.27;5.17;;;;;;;;;;5050739;28;20029;-69
2023/05/07 09:04:27;;;;;;;12.73;7.90;;;;;;;;;;5051856;28;20037;-70
2023/05/07 09:06:52;;;;;;;11.27;6.47;;;;;;;;;;5052451;28;20099;-69
2023/05/07 09:09:20;;;;;;;11.83;8.03;;;;;;;;;;5054280;28;20039;-70
2023/05/07 09:11:46;;;;;;;10.23;6.40;;;;;;;;;;5052514;28;20024;-70
2023/05/07 09:14:11;;;;;;;11.50;6.97;;;;;;;;;;5049576;28;20043;-70
2023/05/07 09:16:36;;;;;;;10.80;6.33;;;;;;;;;;5050011;28;20031;-70
2023/05/07 09:19:02;;;;;;;11.37;6.70;;;;;;;;;;5052393;28;20025;-69
2023/05/07 09:21:27;;;;;;;11.10;7.67;;;;;;;;;;5052984;28;20387;-70
2023/05/07 09:23:53;;;;;;;10.30;6.80;;;;;;;;;;5051043;28;20067;-70
2023/05/07 09:26:20;;;;;;;10.70;7.13;;;;;;;;;;5051162;28;20020;-70
2023/05/07 09:28:46;;;;;;;11.87;7.50;;;;;;;;;;5051721;28;20036;-70
2023/05/07 09:31:11;;;;;;;10.67;7.40;;;;;;;;;;5050487;28;20025;-70
2023/05/07 09:33:37;;;;;;;10.57;7.47;;;;;;;;;;5052495;28;20025;-70
2023/05/07 09:36:03;;;;;;;9.63;5.82;;;;;;;;;;5053791;28;20469;-70
2023/05/07 09:38:29;;;;;;;7.73;4.03;;;;;;;;;;5050407;28;20423;-70
2023/05/07 09:41:01;;;;;;;10.13;7.13;;;;;;;;;;5050166;28;20029;-70
2023/05/07 09:43:31;;;;;;;7.93;5.03;;;;;;;;;;5043115;28;20426;-70
2023/05/07 09:45:57;;;;;;;9.93;5.97;;;;;;;;;;5045838;28;20443;-70
2023/05/07 09:48:23;;;;;;;9.55;6.20;;;;;;;;;;5033177;28;20014;-70
2023/05/07 09:50:49;;;;;;;8.05;4.80;;;;;;;;;;5039672;28;20024;-70
2023/05/07 09:53:16;;;;;;;11.30;7.55;;;;;;;;;;5051109;28;20048;-70
2023/05/07 09:55:41;;;;;;;8.27;4.10;;;;;;;;;;5051433;28;20025;-70
2023/05/07 09:58:07;;;;;;;8.40;5.53;;;;;;;;;;5052390;28;20028;-70
2023/05/07 10:00:33;;;;;;;8.10;5.43;;;;;;;;;;5050396;28;20024;-70
2023/05/07 10:02:59;;;;;;;9.27;6.57;;;;;;;;;;5050755;28;20021;-70
2023/05/07 10:05:25;;;;;;;10.68;6.65;;;;;;;;;;5050998;28;20029;-70
2023/05/07 10:07:50;;;;;;;8.50;6.28;;;;;;;;;;5051173;28;20477;-70
2023/05/07 10:10:17;;;;;;;9.13;5.75;;;;;;;;;;5050713;28;20115;-70
2023/05/07 10:12:42;;;;;;;9.90;5.50;;;;;;;;;;5051080;28;20029;-70
2023/05/07 10:15:08;;;;;;;8.95;6.43;;;;;;;;;;5050911;28;20104;-70
2023/05/07 10:17:38;;;;;;;9.25;6.32;;;;;;;;;;5048814;28;20028;-70
2023/05/07 10:20:04;;;;;;;9.63;6.72;;;;;;;;;;5048755;28;20044;-70
2023/05/07 10:22:32;;;;;;;9.50;5.38;;;;;;;;;;5052480;28;20419;-69
2023/05/07 10:24:59;;;;;;;9.55;6.43;;;;;;;;;;5051262;28;20464;-69
2023/05/07 10:27:25;;;;;;;11.57;8.43;;;;;;;;;;5050616;28;20021;-69
2023/05/07 10:30:16;;;;;;;8.40;4.90;;;;;;;;;;5048389;28;20897;-69
2023/05/07 10:32:47;;;;;;;8.65;7.13;;;;;;;;;;4968219;28;20035;-70
2023/05/07 10:35:17;;;;;;;8.70;5.50;;;;;;;;;;4970854;28;20098;-70
2023/05/07 10:37:42;;;;;;;11.38;6.47;;;;;;;;;;4971039;28;20089;-70
2023/05/07 10:40:08;;;;;;;11.15;8.20;;;;;;;;;;4971211;28;20023;-70
2023/05/07 10:42:34;;;;;;;10.70;6.57;;;;;;;;;;4970007;28;20023;-69
2023/05/07 10:45:11;;;;;;;9.57;6.85;;;;;;;;;;4969279;28;20023;-70
2023/05/07 10:47:56;;;;;;;9.40;6.55;;;;;;;;;;4971163;28;20019;-70
2023/05/07 10:50:22;;;;;;;10.07;7.57;;;;;;;;;;4969713;28;20035;-70
2023/05/07 10:53:07;;;;;;;11.57;8.18;;;;;;;;;;4970046;28;20081;-69
2023/05/07 10:55:33;;;;;;;9.80;7.25;;;;;;;;;;4976610;28;20105;-69
2023/05/07 10:58:18;;;;;;;10.93;8.10;;;;;;;;;;4975046;28;20031;-69
2023/05/07 11:00:43;;;;;;;9.45;6.45;;;;;;;;;;4973921;28;20034;-69
2023/05/07 11:03:09;;;;;;;10.82;7.75;;;;;;;;;;4974559;28;20030;-69
2023/05/07 11:05:34;;;;;;;10.18;6.82;;;;;;;;;;4975546;28;20042;-69
2023/05/07 11:08:03;;;;;;;11.30;7.65;;;;;;;;;;4972882;28;20027;-69
2023/05/07 11:10:48;;;;;;;9.77;6.80;;;;;;;;;;5047583;28;20115;-69
2023/05/07 11:13:14;;;;;;;10.45;7.72;;;;;;;;;;5055914;28;20025;-69
2023/05/07 11:15:41;;;;;;;8.60;5.70;;;;;;;;;;5053221;28;20020;-69
2023/05/07 11:18:07;;;;;;;11.57;8.23;;;;;;;;;;5054693;28;20029;-69
2023/05/07 11:20:51;;;;;;;10.15;6.60;;;;;;;;;;5052398;28;20031;-69
2023/05/07 11:23:55;;;;;;;11.32;8.27;;;;;;;;;;5044673;28;20029;-69
2023/05/07 11:26:21;;;;;;;11.63;7.00;;;;;;;;;;4985249;28;20030;-69
2023/05/07 11:28:46;;;;;;;10.50;7.70;;;;;;;;;;4992401;28;20026;-69
2023/05/07 11:31:12;;;;;;;10.10;7.00;;;;;;;;;;4990723;28;20185;-69
2023/05/07 11:33:37;;;;;;;10.88;7.82;;;;;;;;;;4992425;28;20037;-68
2023/05/07 11:36:04;;;;;;;9.25;5.47;;;;;;;;;;4991736;28;20479;-69
2023/05/07 11:38:36;;;;;;;9.50;7.03;;;;;;;;;;4989110;28;20117;-69
2023/05/07 11:41:02;;;;;;;13.18;7.00;;;;;;;;;;4992691;28;20033;-69
2023/05/07 11:43:27;;;;;;;8.88;6.13;;;;;;;;;;4993135;28;20040;-69
2023/05/07 11:45:53;;;;;;;7.45;4.95;;;;;;;;;;4992692;28;20022;-69
2023/05/07 11:48:18;;;;;;;11.00;7.47;;;;;;;;;;4992777;28;20508;-69
2023/05/07 11:51:01;;;;;;;9.48;6.38;;;;;;;;;;4990325;28;20042;-69
2023/05/07 11:53:28;;;;;;;10.13;7.43;;;;;;;;;;4992122;28;20470;-69
2023/05/07 11:55:54;;;;;;;9.10;7.10;;;;;;;;;;4992143;28;20455;-69
2023/05/07 11:58:21;;;;;;;8.45;5.40;;;;;;;;;;5050721;28;20098;-69
2023/05/07 12:00:49;;;;;;;8.48;6.35;;;;;;;;;;5046902;28;20037;-69
2023/05/07 12:03:15;;;;;;;10.25;6.78;;;;;;;;;;5050042;28;20013;-68
2023/05/07 12:05:41;;;;;;;9.88;6.70;;;;;;;;;;5051792;28;20086;-68
2023/05/07 12:08:07;;;;;;;9.25;6.93;;;;;;;;;;5046169;28;20052;-69
2023/05/07 12:10:32;;;;;;;9.80;6.88;;;;;;;;;;5041809;28;20059;-68
2023/05/07 12:12:57;;;;;;;10.50;8.10;;;;;;;;;;5050455;28;20033;-69
2023/05/07 12:15:22;;;;;;;8.98;6.28;;;;;;;;;;5035513;28;20029;-69
2023/05/07 12:17:48;;;;;;;9.15;7.20;;;;;;;;;;5049733;28;20025;-68
2023/05/07 12:20:14;;;;;;;9.38;6.55;;;;;;;;;;5051070;28;20032;-69
2023/05/07 12:22:40;;;;;;;9.75;7.30;;;;;;;;;;5052718;28;20032;-68
2023/05/07 12:25:06;;;;;;;9.02;6.85;;;;;;;;;;5053505;28;20029;-68
2023/05/07 12:27:32;;;;;;;9.88;6.20;;;;;;;;;;5053341;28;20158;-68
2023/05/07 12:29:57;;;;;;;8.68;5.53;;;;;;;;;;5053359;28;20380;-68
2023/05/07 12:32:23;;;;;;;11.38;7.35;;;;;;;;;;5052044;28;20028;-68
2023/05/07 12:34:51;;;;;;;9.98;7.57;;;;;;;;;;5053364;28;20062;-68
2023/05/07 12:37:16;;;;;;;10.35;6.13;;;;;;;;;;5052799;28;20021;-68
2023/05/07 12:39:48;;;;;;;9.80;7.57;;;;;;;;;;5053240;28;20109;-69
2023/05/07 12:42:19;;;;;;;12.23;7.35;;;;;;;;;;5049895;28;20033;-69
2023/05/07 12:44:45;;;;;;;8.98;5.45;;;;;;;;;;5053971;28;20432;-68
2023/05/07 12:47:12;;;;;;;11.07;7.65;;;;;;;;;;5052958;28;20400;-68
2023/05/07 12:49:38;;;;;;;10.90;7.68;;;;;;;;;;5051582;28;20417;-68
2023/05/07 12:52:04;;;;;;;10.25;7.50;;;;;;;;;;5033611;28;20078;-68
2023/05/07 12:54:30;;;;;;;10.73;6.35;;;;;;;;;;5052666;28;20024;-68
2023/05/07 12:57:06;;;;;;;10.48;7.18;;;;;;;;;;5051485;28;20029;-68
2023/05/07 12:59:32;;;;;;;9.07;5.75;;;;;;;;;;5048103;28;20477;-69
2023/05/07 13:01:57;;;;;;;8.90;5.95;;;;;;;;;;5053714;28;20105;-68
2023/05/07 13:04:24;;;;;;;9.27;6.70;;;;;;;;;;5049988;28;20112;-68
2023/05/07 13:06:50;;;;;;;9.63;5.18;;;;;;;;;;5050786;28;20028;-69
2023/05/07 13:09:16;;;;;;;9.63;6.68;;;;;;;;;;5053842;28;20021;-68
2023/05/07 13:11:41;;;;;;;10.13;6.18;;;;;;;;;;5035979;28;20129;-68
2023/05/07 13:14:06;;;;;;;10.00;7.45;;;;;;;;;;5054112;28;20025;-68
2023/05/07 13:16:32;;;;;;;9.20;4.45;;;;;;;;;;5052655;28;20025;-69
2023/05/07 13:18:57;;;;;;;10.68;6.93;;;;;;;;;;5035870;28;20017;-68
2023/05/07 13:21:22;;;;;;;12.70;7.47;;;;;;;;;;5053103;28;20033;-69
2023/05/07 13:23:48;;;;;;;10.15;7.40;;;;;;;;;;5053579;28;20028;-68
2023/05/07 13:26:13;;;;;;;10.50;7.25;;;;;;;;;;5053992;28;20020;-69
2023/05/07 13:28:39;;;;;;;12.02;7.78;;;;;;;;;;5053503;28;20026;-69
2023/05/07 13:31:04;;;;;;;11.30;8.50;;;;;;;;;;5052531;28;20090;-69
2023/05/07 13:33:29;;;;;;;11.77;8.18;;;;;;;;;;5035659;28;20092;-69
2023/05/07 13:35:56;;;;;;;10.50;8.13;;;;;;;;;;5053455;28;20035;-68
2023/05/07 13:38:22;;;;;;;10.95;7.78;;;;;;;;;;5053400;28;20066;-69
2023/05/07 13:40:47;;;;;;;12.25;8.05;;;;;;;;;;5053579;28;20033;-69
2023/05/07 13:43:13;;;;;;;9.10;6.07;;;;;;;;;;5053194;28;20048;-69
2023/05/07 13:45:38;;;;;;;9.80;6.65;;;;;;;;;;5047546;28;20480;-69
2023/05/07 13:48:04;;;;;;;11.63;9.02;;;;;;;;;;5055363;28;20020;-69
2023/05/07 13:50:29;;;;;;;12.45;8.43;;;;;;;;;;5055426;28;20480;-69
2023/05/07 13:52:55;;;;;;;12.18;8.82;;;;;;;;;;5073146;28;20397;-69
2023/05/07 13:55:21;;;;;;;12.10;9.38;;;;;;;;;;5055269;28;20028;-69
2023/05/07 13:57:47;;;;;;;14.15;9.40;;;;;;;;;;5073403;28;20047;-69
2023/05/07 14:00:13;;;;;;;11.60;8.30;;;;;;;;;;5073364;28;20098;-69
2023/05/07 14:02:38;;;;;;;12.00;8.82;;;;;;;;;;5073072;28;20016;-69
2023/05/07 14:05:04;;;;;;;10.52;7.93;;;;;;;;;;5055554;28;20048;-68
2023/05/07 14:07:30;;;;;;;11.70;8.68;;;;;;;;;;5052980;28;20024;-69
2023/05/07 14:09:55;;;;;;;12.65;9.02;;;;;;;;;;5053249;28;20163;-69
2023/05/07 14:12:21;;;;;;;11.10;7.85;;;;;;;;;;5053250;28;20051;-69
2023/05/07 14:14:46;;;;;;;11.48;8.75;;;;;;;;;;5052889;28;20095;-69
2023/05/07 14:17:12;;;;;;;14.13;10.02;;;;;;;;;;5053268;28;20365;-69
2023/05/07 14:19:37;;;;;;;9.80;7.47;;;;;;;;;;5053205;28;20376;-68
2023/05/07 14:22:02;;;;;;;8.80;6.68;;;;;;;;;;5053102;28;20028;-69
2023/05/07 14:24:28;;;;;;;12.43;8.20;;;;;;;;;;5052849;28;20013;-69